Time;durP1;ratioP1;P1;durP2;ratioP2;P2;SDS_P1;SDS_P2;PMS_P1;PMS_P2;Temp;Humidity;BMP_temperature;BMP_pressure;BME280_temperature;BME280_humidity;BME280_pressure;Samples;Min_cycle;Max_cycle;Signal;HPM_P1;HPM_P2
2022/03/14 00:00:47;;;;;;;5.40;2.75;;;11.60;81.60;;;9.77;78.97;100680.22;5029564;28;20284;-85
2022/03/14 00:03:14;;;;;;;5.20;2.45;;;11.60;81.60;;;9.77;79.41;100688.38;5032199;28;20541;-86
2022/03/14 00:05:42;;;;;;;4.32;2.30;;;11.60;81.50;;;9.77;79.27;100688.38;5046955;28;20075;-85
2022/03/14 00:08:13;;;;;;;4.38;2.45;;;11.60;81.80;;;9.74;79.94;100698.75;5049742;28;20049;-86
2022/03/14 00:10:41;;;;;;;5.18;2.72;;;11.60;81.80;;;9.65;80.39;100697.91;5036830;28;20064;-86
2022/03/14 00:13:09;;;;;;;4.78;2.55;;;11.60;82.00;;;9.63;80.77;100702.69;5033601;28;20100;-86
2022/03/14 00:15:40;;;;;;;4.25;2.33;;;11.60;82.10;;;9.50;81.54;100699.66;5030514;28;20410;-86
2022/03/14 00:18:10;;;;;;;4.80;2.70;;;11.60;82.20;;;9.52;81.62;100689.44;5049737;28;20191;-86
2022/03/14 00:20:39;;;;;;;3.85;2.20;;;11.60;82.30;;;9.51;81.79;100696.75;5037199;28;20052;-86
2022/03/14 00:23:07;;;;;;;4.07;2.05;;;11.50;82.60;;;9.43;82.34;100704.94;5031636;28;20045;-86
2022/03/14 00:25:36;;;;;;;5.25;2.47;;;11.50;82.50;;;9.47;82.23;100709.00;5046978;28;20047;-86
2022/03/14 00:28:04;;;;;;;9.13;2.50;;;11.50;82.60;;;9.44;82.02;100708.50;5057646;28;20049;-85
2022/03/14 00:30:32;;;;;;;5.38;2.60;;;11.50;82.60;;;9.41;82.31;100711.56;5044316;28;20080;-86
2022/03/14 00:32:59;;;;;;;4.90;2.38;;;11.40;82.60;;;9.35;82.99;100715.84;5028987;28;20071;-87
2022/03/14 00:35:27;;;;;;;6.43;2.50;;;11.40;82.90;;;9.29;83.03;100717.38;5062416;28;20060;-86
2022/03/14 00:37:54;;;;;;;4.60;2.50;;;11.30;83.10;;;9.25;83.47;100717.84;5024132;28;20045;-86
2022/03/14 00:40:22;;;;;;;5.10;2.38;;;11.30;83.30;;;9.17;83.58;100714.13;5044894;28;20102;-86
2022/03/14 00:42:50;;;;;;;4.68;2.55;;;11.30;83.30;;;9.09;84.11;100719.56;5040963;28;20124;-86
2022/03/14 00:45:19;;;;;;;4.13;2.20;;;11.30;83.40;;;9.05;84.35;100711.94;5027792;28;20045;-86
2022/03/14 00:47:47;;;;;;;9.70;2.70;;;11.20;83.30;;;8.96;84.94;100720.06;5062768;28;20048;-85
2022/03/14 00:50:14;;;;;;;4.07;2.20;;;11.20;83.40;;;8.90;85.60;100726.19;5039867;28;20095;-86
2022/03/14 00:52:41;;;;;;;5.40;2.65;;;11.20;83.50;;;8.93;85.17;100736.72;5044437;28;20049;-86
2022/03/14 00:55:09;;;;;;;4.72;2.45;;;11.20;83.60;;;9.05;85.09;100734.50;5063166;28;20132;-85
2022/03/14 00:57:36;;;;;;;4.65;2.70;;;11.10;83.70;;;9.14;85.55;100740.78;5054541;28;20135;-85
2022/03/14 01:00:07;;;;;;;5.53;2.60;;;11.20;84.10;;;9.22;84.97;100743.50;5049899;28;20045;-86
2022/03/14 01:02:34;;;;;;;6.28;2.95;;;11.10;84.40;;;9.26;84.97;100744.84;5030952;28;20137;-86
2022/03/14 01:05:01;;;;;;;4.45;2.47;;;11.10;84.40;;;9.32;84.50;100752.31;5058036;28;20057;-86
2022/03/14 01:07:29;;;;;;;4.80;2.58;;;11.10;84.40;;;9.38;83.82;100756.22;5035818;28;20120;-86
2022/03/14 01:09:56;;;;;;;4.88;2.40;;;11.10;84.40;;;9.43;84.27;100747.56;5052250;28;20556;-86
2022/03/14 01:12:23;;;;;;;5.55;2.88;;;11.10;84.60;;;9.50;83.96;100744.00;5051036;28;20106;-86
2022/03/14 01:14:50;;;;;;;5.32;2.65;;;11.20;84.60;;;9.53;83.93;100745.50;5048409;28;20136;-86
2022/03/14 01:17:19;;;;;;;4.75;2.70;;;11.10;84.60;;;9.49;84.59;100741.44;5047780;28;20132;-86
2022/03/14 01:19:46;;;;;;;6.00;2.97;;;11.20;85.30;;;9.50;87.02;100749.41;5047679;28;20052;-86
2022/03/14 01:22:14;;;;;;;5.32;2.78;;;11.20;86.30;;;9.36;89.69;100747.38;5061944;28;20042;-87
2022/03/14 01:24:42;;;;;;;7.43;2.80;;;11.20;86.90;;;9.29;90.26;100752.66;5032845;28;20531;-87
2022/03/14 01:27:09;;;;;;;6.03;3.15;;;11.20;87.20;;;9.23;91.24;100758.75;5033186;28;20048;-86
2022/03/14 01:29:38;;;;;;;7.07;2.92;;;11.20;87.60;;;9.23;91.88;100763.34;5035821;28;20064;-86
2022/03/14 01:32:07;;;;;;;5.28;3.13;;;11.20;87.80;;;9.30;91.77;100772.53;5032603;28;20049;-86
2022/03/14 01:34:36;;;;;;;4.90;2.92;;;11.20;88.40;;;9.39;92.44;100782.38;5061974;28;20411;-86
2022/03/14 01:37:04;;;;;;;6.00;2.83;;;11.20;88.80;;;9.43;92.25;100786.44;5059089;28;20154;-86
2022/03/14 01:39:32;;;;;;;5.68;2.92;;;11.20;88.80;;;9.39;91.91;100793.22;5052255;28;20079;-86
2022/03/14 01:42:00;;;;;;;5.65;3.67;;;11.20;89.10;;;9.53;91.01;100797.13;5036963;28;20563;-86
2022/03/14 01:44:27;;;;;;;5.75;3.20;;;11.20;89.20;;;9.54;90.61;100793.41;5031742;28;20658;-87
2022/03/14 01:46:55;;;;;;;5.57;3.25;;;11.20;89.40;;;9.62;90.62;100800.69;5032306;28;20037;-87
2022/03/14 01:49:23;;;;;;;6.10;3.33;;;11.20;89.20;;;9.68;90.44;100800.84;5047288;28;20045;-86
2022/03/14 01:51:52;;;;;;;6.90;3.50;;;11.30;89.20;;;9.65;91.52;100803.91;5046377;28;20076;-87
2022/03/14 01:54:20;;;;;;;6.50;3.45;;;11.30;89.50;;;9.71;90.66;100807.78;5032021;28;20041;-87
2022/03/14 01:56:48;;;;;;;6.30;3.60;;;11.30;89.10;;;9.69;91.35;100808.00;5047944;28;20087;-86
2022/03/14 01:59:16;;;;;;;7.55;3.60;;;11.30;88.80;;;9.68;91.81;100805.44;5045746;28;20423;-86
2022/03/14 02:01:43;;;;;;;6.18;3.70;;;11.30;88.90;;;9.68;90.91;100803.56;5046391;28;20041;-86
2022/03/14 02:04:10;;;;;;;5.90;3.22;;;11.40;88.70;;;9.68;91.33;100805.44;5046064;28;20407;-86
2022/03/14 02:06:39;;;;;;;6.10;3.50;;;11.40;88.60;;;9.71;90.81;100805.06;5038047;28;20036;-87
2022/03/14 02:09:11;;;;;;;6.38;3.85;;;11.40;88.50;;;9.69;90.47;100805.28;5048043;28;20096;-87
2022/03/14 02:11:38;;;;;;;5.18;3.50;;;11.40;88.60;;;9.72;90.77;100796.75;5048381;28;20531;-86
2022/03/14 02:14:06;;;;;;;7.10;3.80;;;11.40;88.70;;;9.74;90.38;100802.88;5042498;28;20041;-87
2022/03/14 02:16:33;;;;;;;5.68;3.67;;;11.40;88.40;;;9.73;91.02;100809.34;5030411;28;20480;-87
2022/03/14 02:19:01;;;;;;;6.72;3.40;;;11.40;88.60;;;9.73;89.57;100806.63;5047829;28;20049;-87
2022/03/14 02:21:29;;;;;;;5.90;3.40;;;11.40;88.50;;;9.83;90.41;100811.03;5041567;28;20132;-87
2022/03/14 02:23:57;;;;;;;5.75;3.78;;;11.40;88.90;;;9.85;90.38;100812.53;5058670;28;20451;-87
2022/03/14 02:26:24;;;;;;;7.22;3.92;;;11.40;89.50;;;9.78;92.75;100816.97;5032779;28;20072;-86
2022/03/14 02:28:52;;;;;;;6.53;3.92;;;11.40;89.60;;;9.79;94.09;100824.13;5054778;28;20051;-87
2022/03/14 02:31:19;;;;;;;7.22;3.67;;;11.40;90.10;;;9.71;95.94;100826.81;5051153;28;20045;-88
2022/03/14 02:33:46;;;;;;;6.80;4.15;;;11.50;90.40;;;9.59;97.61;100829.03;5048303;28;20131;-86
2022/03/14 02:36:13;;;;;;;9.15;4.28;;;11.40;91.40;;;9.61;98.92;100827.00;5038936;28;20522;-86
2022/03/14 02:38:43;;;;;;;6.90;4.63;;;11.50;92.00;;;9.56;100.00;100826.69;5029845;28;20399;-87
2022/03/14 02:41:11;;;;;;;9.25;4.60;;;11.40;92.60;;;9.47;100.00;100830.41;5049907;28;20193;-87
2022/03/14 02:43:38;;;;;;;7.63;4.30;;;11.40;93.20;;;9.50;100.00;100840.94;5044651;28;20037;-87
2022/03/14 02:46:05;;;;;;;6.90;4.72;;;11.40;93.80;;;9.43;100.00;100834.50;5034378;28;20045;-87
2022/03/14 02:48:35;;;;;;;8.27;4.80;;;11.40;94.40;;;9.44;100.00;100844.31;5053278;28;20041;-88
2022/03/14 02:51:02;;;;;;;7.80;4.78;;;11.40;94.80;;;9.45;100.00;100848.75;5029547;28;20051;-88
2022/03/14 02:53:29;;;;;;;9.35;4.80;;;11.30;95.20;;;9.33;100.00;100849.09;5063764;28;20053;-87
2022/03/14 02:55:58;;;;;;;8.07;5.22;;;11.30;95.70;;;9.41;100.00;100852.84;5036727;28;20045;-88
2022/03/14 02:58:32;;;;;;;8.25;4.82;;;11.30;95.90;;;9.35;100.00;100854.34;5030587;28;20065;-87
2022/03/14 03:01:00;;;;;;;8.30;5.25;;;11.30;96.10;;;9.37;100.00;100864.03;5045974;28;20041;-87
2022/03/14 03:03:27;;;;;;;8.57;4.93;;;11.30;96.40;;;9.34;100.00;100858.91;5026345;28;20482;-88
2022/03/14 03:05:56;;;;;;;8.48;5.28;;;11.30;96.50;;;9.33;100.00;100859.94;5025288;28;20091;-88
2022/03/14 03:08:23;;;;;;;9.00;5.03;;;11.30;97.10;;;9.38;100.00;100868.41;5045441;28;20068;-87
2022/03/14 03:10:50;;;;;;;8.75;5.30;;;11.20;97.20;;;9.30;100.00;100879.28;5048511;28;20467;-87
2022/03/14 03:13:19;;;;;;;8.52;5.20;;;11.20;97.70;;;9.30;100.00;100879.28;5041950;28;20045;-88
2022/03/14 03:15:47;;;;;;;8.43;5.15;;;11.20;98.30;;;9.22;100.00;100882.00;5009481;28;20068;-87
2022/03/14 03:18:14;;;;;;;9.05;5.10;;;11.20;98.40;;;9.24;100.00;100881.84;5030024;28;20080;-87
2022/03/14 03:20:42;;;;;;;12.82;6.32;;;11.20;98.50;;;9.20;100.00;100894.91;5049840;28;20602;-87
2022/03/14 03:23:10;;;;;;;10.02;6.53;;;11.20;98.90;;;9.25;100.00;100891.66;5042273;28;20067;-87
2022/03/14 03:25:39;;;;;;;11.65;6.32;;;11.10;99.40;;;9.25;100.00;100895.22;5021836;28;20037;-87
2022/03/14 03:28:06;;;;;;;11.40;6.20;;;11.10;99.60;;;9.29;100.00;100898.47;5031088;28;20128;-88
2022/03/14 03:30:35;;;;;;;12.60;6.63;;;11.10;99.90;;;9.28;100.00;100903.03;5041089;28;20041;-87
2022/03/14 03:33:02;;;;;;;11.73;6.20;;;11.20;99.90;;;9.25;100.00;100897.09;5030543;28;20077;-87
2022/03/14 03:35:30;;;;;;;11.68;6.90;;;11.10;99.90;;;9.23;100.00;100910.00;5044091;28;20057;-88
2022/03/14 03:37:57;;;;;;;13.63;7.35;;;11.20;99.90;;;9.17;100.00;100911.50;5055256;28;20090;-88
2022/03/14 03:40:24;;;;;;;11.07;6.75;;;11.30;99.90;;;9.19;100.00;100921.22;5065718;28;20132;-88
2022/03/14 03:42:54;;;;;;;13.75;6.97;;;11.10;99.90;;;9.18;100.00;100915.94;5061144;28;20037;-87
2022/03/14 03:45:22;;;;;;;10.40;7.00;;;11.10;99.90;;;9.23;100.00;100926.28;5041314;28;20124;-88
2022/03/14 03:47:51;;;;;;;10.43;6.80;;;11.10;99.90;;;9.25;100.00;100922.38;5046871;28;20063;-87
2022/03/14 03:50:19;;;;;;;13.88;7.18;;;11.00;99.90;;;9.27;100.00;100922.22;5010365;28;20046;-88
2022/03/14 03:52:46;;;;;;;11.23;6.78;;;11.10;99.90;;;9.21;100.00;100929.16;5024260;28;20045;-87
2022/03/14 03:55:14;;;;;;;11.98;7.20;;;11.10;99.90;;;9.22;100.00;100941.75;5046240;28;20045;-87
2022/03/14 03:57:41;;;;;;;12.23;6.57;;;11.00;99.90;;;9.23;100.00;100942.59;5049188;28;20080;-87
2022/03/14 04:00:12;;;;;;;9.65;6.50;;;11.00;99.90;;;9.24;100.00;100938.88;5038427;28;20084;-89
2022/03/14 04:02:44;;;;;;;11.32;7.35;;;11.00;99.90;;;9.28;100.00;100946.50;5030109;28;20052;-87
2022/03/14 04:05:14;;;;;;;12.10;6.95;;;11.00;99.90;;;9.24;100.00;100953.28;5048660;28;20080;-88
2022/03/14 04:07:42;;;;;;;12.50;7.03;;;11.00;99.90;;;9.18;100.00;100951.25;5035168;28;20041;-87
2022/03/14 04:10:11;;;;;;;14.68;7.38;;;11.00;99.90;;;9.13;100.00;100951.72;5032048;28;20042;-87
2022/03/14 04:12:40;;;;;;;11.75;6.80;;;11.00;99.90;;;9.15;100.00;100946.97;5041723;28;20044;-86
2022/03/14 04:15:10;;;;;;;13.52;7.40;;;11.00;99.90;;;9.16;100.00;100954.13;5029977;28;20131;-87
2022/03/14 04:17:38;;;;;;;12.65;7.65;;;11.00;99.90;;;9.13;100.00;100959.03;5048931;28;20419;-88
2022/03/14 04:20:08;;;;;;;12.90;7.78;;;11.00;99.90;;;9.13;100.00;100964.44;5048587;28;20063;-88
2022/03/14 04:22:41;;;;;;;10.63;7.20;;;11.10;99.90;;;9.16;100.00;100959.53;5029245;28;20144;-88
2022/03/14 04:25:11;;;;;;;13.55;7.60;;;11.10;99.90;;;9.10;100.00;100964.75;5039948;28;20114;-88
2022/03/14 04:27:38;;;;;;;13.98;8.25;;;11.10;99.90;;;9.07;100.00;100974.09;5035478;28;20044;-88
2022/03/14 04:30:08;;;;;;;15.57;7.85;;;11.10;99.90;;;9.10;100.00;100970.19;5029241;28;20152;-89
2022/03/14 04:32:35;;;;;;;13.30;7.85;;;11.00;99.90;;;9.13;100.00;100972.59;5046436;28;20140;-88
2022/03/14 04:35:03;;;;;;;12.30;7.68;;;11.00;99.90;;;9.22;100.00;100982.47;5030400;28;20056;-89
2022/03/14 04:37:30;;;;;;;10.50;7.40;;;11.10;99.90;;;9.18;100.00;100971.09;5040349;28;20069;-89
2022/03/14 04:39:59;;;;;;;10.35;7.40;;;11.00;99.90;;;9.26;100.00;100978.41;5046912;28;20043;-89
2022/03/14 04:42:26;;;;;;;10.55;7.35;;;11.00;99.90;;;9.32;100.00;100988.59;5057731;28;20087;-89
2022/03/14 04:44:54;;;;;;;10.32;7.15;;;11.00;99.90;;;9.31;100.00;100986.94;5047558;28;20511;-89
2022/03/14 04:47:21;;;;;;;12.45;7.55;;;11.00;99.90;;;9.27;100.00;100982.84;5047230;28;20063;-88
2022/03/14 04:49:49;;;;;;;12.93;8.07;;;11.00;99.90;;;9.27;100.00;100982.84;5029104;28;20055;-88
2022/03/14 04:52:16;;;;;;;13.90;7.07;;;11.00;99.90;;;9.32;100.00;100998.63;5029025;28;20065;-89
2022/03/14 04:54:44;;;;;;;12.65;8.10;;;11.00;99.90;;;9.31;100.00;100999.63;5029676;28;20562;-89
2022/03/14 04:57:13;;;;;;;15.25;7.82;;;11.00;99.90;;;9.37;100.00;100997.13;5049156;28;20072;-88
2022/03/14 04:59:40;;;;;;;11.15;7.38;;;11.00;99.90;;;9.36;100.00;101009.00;5052628;28;20522;-88
2022/03/14 05:02:07;;;;;;;12.43;8.13;;;10.90;99.90;;;9.34;100.00;101013.75;5029820;28;20103;-88
2022/03/14 05:04:37;;;;;;;12.18;8.25;;;11.00;99.90;;;9.39;100.00;101014.09;5047864;28;20122;-88
2022/03/14 05:07:06;;;;;;;13.63;8.20;;;10.90;99.90;;;9.36;100.00;101011.72;5037373;28;20128;-89
2022/03/14 05:09:33;;;;;;;13.88;9.23;;;10.90;99.90;;;9.33;100.00;101009.34;5045833;28;20403;-88
2022/03/14 05:12:01;;;;;;;12.18;8.07;;;10.90;99.90;;;9.29;100.00;101018.84;5049047;28;20037;-87
2022/03/14 05:14:30;;;;;;;12.00;7.55;;;10.90;99.90;;;9.37;100.00;101024.28;5036767;28;20104;-89
2022/03/14 05:16:58;;;;;;;11.13;8.25;;;10.90;99.90;;;9.37;100.00;101021.56;5046663;28;20045;-89
2022/03/14 05:19:25;;;;;;;12.60;8.80;;;10.80;99.90;;;9.31;100.00;101030.38;5041992;28;20042;-88
2022/03/14 05:21:53;;;;;;;12.55;8.52;;;10.90;99.90;;;9.26;100.00;101029.19;5041499;28;20048;-89
2022/03/14 05:24:20;;;;;;;13.55;10.00;;;11.10;99.90;;;9.26;100.00;101035.44;5045791;28;20495;-89
2022/03/14 05:26:47;;;;;;;13.85;10.10;;;10.90;99.90;;;9.22;100.00;101028.66;5045606;28;20045;-89
2022/03/14 05:29:15;;;;;;;13.38;10.23;;;10.80;99.90;;;9.22;100.00;101033.22;5028518;28;20053;-89
2022/03/14 05:31:44;;;;;;;14.27;10.60;;;10.80;99.90;;;9.20;100.00;101033.38;5040294;28;20037;-89
2022/03/14 05:34:11;;;;;;;16.02;11.00;;;10.90;99.90;;;9.18;100.00;101038.13;5048266;28;20049;-89
2022/03/14 05:36:40;;;;;;;14.27;10.55;;;10.90;99.90;;;9.14;100.00;101032.19;5047724;28;20146;-88
2022/03/14 05:39:09;;;;;;;14.32;11.23;;;10.80;99.90;;;9.15;100.00;101044.72;5041589;28;20049;-89
2022/03/14 05:41:36;;;;;;;15.88;10.63;;;10.80;99.90;;;9.16;100.00;101051.03;5044404;28;20052;-88
2022/03/14 05:44:03;;;;;;;15.77;10.95;;;10.80;99.90;;;9.08;100.00;101053.69;5044085;28;20172;-88
2022/03/14 05:46:34;;;;;;;14.50;10.40;;;10.70;99.90;;;9.09;100.00;101061.66;5043675;28;20053;-89
2022/03/14 05:54:19;;;;;;;13.88;9.98;;;10.70;99.90;;;9.05;100.00;101070.31;5010616;28;20135;-88
2022/03/14 05:56:46;;;;;;;14.27;10.48;;;10.70;99.90;;;9.02;100.00;101076.06;5003857;28;20458;-90
2022/03/14 05:59:14;;;;;;;13.90;10.50;;;10.70;99.90;;;9.00;100.00;101081.63;4992962;28;20488;-88
2022/03/14 06:01:42;;;;;;;14.52;10.60;;;10.60;99.90;;;9.03;100.00;101080.47;4992388;28;20054;-89
2022/03/14 06:04:10;;;;;;;14.75;11.40;;;10.60;99.90;;;8.99;100.00;101086.22;4993842;28;20496;-90
2022/03/14 06:06:47;;;;;;;16.05;11.70;;;10.60;99.90;;;9.00;100.00;101100.63;5011665;28;20042;-89
2022/03/14 06:09:14;;;;;;;16.10;11.40;;;10.60;99.90;;;9.02;100.00;101098.63;4992948;28;20049;-89
2022/03/14 06:11:46;;;;;;;16.10;11.65;;;10.60;99.90;;;9.04;100.00;101103.88;4994236;28;20397;-89
2022/03/14 06:14:19;;;;;;;15.43;10.45;;;10.60;99.90;;;9.10;100.00;101108.66;5010342;28;20053;-88
2022/03/14 06:16:55;;;;;;;14.43;9.95;;;10.60;99.90;;;9.13;100.00;101101.06;4993307;28;20046;-96
2022/03/14 06:19:23;;;;;;;15.55;9.80;;;10.60;99.90;;;9.12;100.00;101109.34;4986452;28;20045;-87
2022/03/14 06:21:51;;;;;;;15.13;9.93;;;10.60;99.90;;;8.99;100.00;101109.81;5003383;28;20053;-88
2022/03/14 06:24:21;;;;;;;15.35;10.90;;;10.60;99.90;;;9.04;100.00;101114.75;5010878;28;20034;-85
2022/03/14 06:26:52;;;;;;;21.42;12.20;;;10.60;99.90;;;9.02;100.00;101114.91;5006478;28;20050;-86
2022/03/14 06:29:19;;;;;;;16.48;10.82;;;10.70;99.90;;;8.95;100.00;101124.72;5001458;28;20144;-88
2022/03/14 06:31:47;;;;;;;15.05;10.00;;;10.70;99.90;;;9.00;100.00;101120.53;4993447;28;20038;-87
2022/03/14 06:34:15;;;;;;;13.80;9.45;;;10.70;99.90;;;9.04;100.00;101123.75;4992387;28;20046;-88
2022/03/14 06:36:44;;;;;;;13.65;8.73;;;10.60;99.90;;;9.02;100.00;101119.50;4992291;28;20038;-88
2022/03/14 06:39:14;;;;;;;13.13;8.80;;;10.70;99.90;;;9.03;100.00;101142.94;4975123;28;20054;-94
2022/03/14 06:41:42;;;;;;;14.48;8.57;;;10.70;99.90;;;9.09;100.00;101142.28;4978629;28;20068;-89
2022/03/14 06:44:12;;;;;;;10.90;7.95;;;10.60;99.90;;;9.09;100.00;101145.84;4993238;28;20042;-88
2022/03/14 06:46:42;;;;;;;10.77;7.53;;;10.60;99.90;;;9.07;100.00;101142.44;5011125;28;20038;-93
2022/03/14 06:49:13;;;;;;;12.88;8.13;;;10.60;99.90;;;9.06;100.00;101142.59;4992748;28;20052;-91
2022/03/14 06:51:55;;;;;;;;;;;;;;;;;;;;;
2022/03/14 06:55:27;;;;;;;10.63;7.00;;;10.60;99.90;;;9.14;100.00;101145.38;5005614;28;20069;-95
2022/03/14 06:58:03;;;;;;;11.55;7.55;;;10.60;99.90;;;9.11;100.00;101157.41;4960027;28;21077;-93
2022/03/14 07:00:37;;;;;;;11.57;7.18;;;10.60;99.90;;;9.11;100.00;101156.56;4995395;28;20041;-93
2022/03/14 07:03:04;;;;;;;11.70;7.40;;;10.60;99.90;;;9.17;100.00;101159.47;4990778;28;20054;-94
2022/03/14 07:05:33;;;;;;;11.98;7.22;;;10.60;99.90;;;9.13;100.00;101170.81;4990539;28;20045;-93
2022/03/14 07:08:03;;;;;;;14.38;7.70;;;10.60;99.90;;;9.06;100.00;101167.03;4991932;28;20108;-92
2022/03/14 07:10:30;;;;;;;12.52;6.82;;;10.60;99.90;;;9.07;100.00;101177.72;4984096;28;20058;-94
2022/03/14 07:12:58;;;;;;;10.77;6.80;;;10.60;99.90;;;9.04;100.00;101177.19;4998816;28;20054;-93
2022/03/14 07:15:28;;;;;;;11.18;6.50;;;10.60;99.90;;;9.12;100.00;101185.38;4995064;28;20056;-93
2022/03/14 07:17:57;;;;;;;12.60;6.30;;;10.60;99.90;;;9.12;100.00;101182.69;4994982;28;20050;-92
2022/03/14 07:20:25;;;;;;;13.20;6.63;;;10.60;99.90;;;9.14;100.00;101191.53;4995827;28;20046;-93
2022/03/14 07:22:55;;;;;;;9.68;6.30;;;10.60;99.90;;;9.05;100.00;101184.34;4990678;28;20053;-94
2022/03/14 07:25:29;;;;;;;10.90;6.32;;;10.60;99.90;;;9.08;100.00;101193.03;4994115;28;20485;-93
2022/03/14 07:28:01;;;;;;;12.75;6.10;;;10.60;99.90;;;9.15;100.00;101195.94;4991862;28;20053;-93
2022/03/14 07:30:29;;;;;;;10.45;6.30;;;10.60;99.90;;;9.19;100.00;101205.47;4992488;28;20050;-93
2022/03/14 07:32:58;;;;;;;12.88;6.45;;;10.60;99.90;;;9.14;100.00;101203.25;5008111;28;20065;-93
2022/03/14 07:35:28;;;;;;;10.93;6.60;;;10.60;99.90;;;9.15;100.00;101215.81;4995638;28;20488;-93
2022/03/14 07:37:59;;;;;;;11.55;6.53;;;10.60;99.90;;;9.19;100.00;101216.34;4996724;28;20050;-94
2022/03/14 07:40:31;;;;;;;9.55;6.40;;;10.60;99.90;;;9.21;100.00;101225.19;4986980;28;20523;-93
2022/03/14 07:43:01;;;;;;;10.23;6.10;;;10.60;99.90;;;9.18;100.00;101220.09;4999027;28;20043;-90
2022/03/14 07:45:32;;;;;;;12.07;6.07;;;10.70;99.90;;;9.25;100.00;101232.00;4998044;28;20033;-90
2022/03/14 07:48:01;;;;;;;14.13;6.05;;;10.70;99.90;;;9.27;100.00;101232.72;4992934;28;20050;-89
2022/03/14 07:50:29;;;;;;;12.30;7.10;;;10.70;99.90;;;9.29;100.00;101241.56;4984560;28;20834;-89
2022/03/14 07:52:57;;;;;;;17.02;9.23;;;10.70;99.90;;;9.29;100.00;101247.00;4989739;28;20060;-89
2022/03/14 07:55:25;;;;;;;18.50;8.73;;;10.70;99.90;;;9.33;100.00;101248.38;4997371;28;20045;-89
2022/03/14 07:57:52;;;;;;;13.40;7.18;;;10.70;99.90;;;9.30;100.00;101247.84;5022561;28;20115;-86
2022/03/14 08:00:21;;;;;;;13.23;7.30;;;10.70;99.90;;;9.35;100.00;101248.22;5004275;28;20054;-89
2022/03/14 08:02:50;;;;;;;15.10;8.27;;;10.70;99.90;;;9.39;100.00;101252.31;5002695;28;20050;-90
2022/03/14 08:05:24;;;;;;;13.98;6.57;;;10.70;99.90;;;9.43;100.00;101247.44;5009388;28;20545;-89
2022/03/14 08:07:52;;;;;;;15.30;6.82;;;10.80;99.90;;;9.48;100.00;101258.66;5002690;28;20100;-90
2022/03/14 08:18:34;;;;;;;13.23;6.97;;;10.80;99.90;;;9.51;100.00;101271.94;4990339;28;20100;-93
2022/03/14 08:22:13;;;;;;;14.63;7.07;;;10.80;99.90;;;9.48;100.00;101278.53;5017540;28;20053;-96
2022/03/14 08:24:45;;;;;;;15.55;7.38;;;10.80;99.90;;;9.46;100.00;101290.56;5012703;28;20622;-95
2022/03/14 08:27:19;;;;;;;14.00;6.88;;;10.80;99.90;;;9.41;100.00;101287.50;5027039;28;20516;-95
2022/03/14 08:30:19;;;;;;;12.18;6.90;;;10.80;99.90;;;9.56;100.00;101294.06;5008645;28;20042;-95
2022/03/14 08:33:22;;;;;;;10.77;7.00;;;10.80;99.90;;;9.63;100.00;101278.78;5001085;28;20049;-95
2022/03/14 08:35:50;;;;;;;13.82;7.03;;;10.90;99.90;;;9.73;100.00;101293.16;5018461;28;20057;-92
2022/03/14 08:38:19;;;;;;;14.20;6.53;;;10.90;99.90;;;9.76;100.00;101298.25;4995391;28;20132;-93
2022/03/14 08:40:47;;;;;;;13.95;7.90;;;11.00;99.90;;;9.75;100.00;101293.84;5006381;28;20116;-92
2022/03/14 08:43:14;;;;;;;15.40;7.60;;;11.00;99.90;;;9.82;100.00;101306.78;5004610;28;20038;-92
2022/03/14 08:45:43;;;;;;;13.73;6.68;;;11.00;99.90;;;9.86;100.00;101313.59;5012954;28;20061;-93
2022/03/14 08:48:15;;;;;;;10.88;6.85;;;11.10;99.90;;;9.88;100.00;101307.00;5007483;28;20038;-92
2022/03/14 08:50:42;;;;;;;14.68;7.22;;;11.10;99.90;;;9.96;100.00;101309.78;5008322;28;20042;-93
2022/03/14 08:53:10;;;;;;;16.48;7.25;;;11.10;99.90;;;10.06;100.00;101317.81;5006440;28;20046;-93
2022/03/14 08:55:39;;;;;;;12.10;6.97;;;11.20;99.90;;;10.16;100.00;101320.41;4990915;28;20452;-92
2022/03/14 08:58:06;;;;;;;18.90;7.88;;;11.20;99.90;;;10.26;100.00;101320.28;4996870;28;20097;-93
2022/03/14 09:00:34;;;;;;;14.15;7.40;;;11.20;99.90;;;10.34;100.00;101312.22;5008477;28;20057;-93
2022/03/14 09:03:02;;;;;;;12.07;6.95;;;11.30;99.90;;;10.44;100.00;101321.09;4992290;28;20489;-93
2022/03/14 09:05:29;;;;;;;19.00;7.53;;;11.40;99.90;;;10.54;100.00;101323.66;4998637;28;20038;-93
2022/03/14 09:07:58;;;;;;;14.75;6.68;;;11.40;99.90;;;10.53;100.00;101311.94;4997354;28;20425;-91
2022/03/14 09:10:26;;;;;;;14.00;7.45;;;11.50;99.90;;;10.57;100.00;101326.91;4989944;28;20054;-93
2022/03/14 09:12:55;;;;;;;17.65;7.65;;;11.50;99.90;;;10.61;100.00;101341.06;4991002;28;20093;-92
2022/03/14 09:15:22;;;;;;;14.60;6.88;;;11.60;99.90;;;10.57;100.00;101334.25;4992545;28;20046;-93
2022/03/14 09:17:52;;;;;;;12.02;6.47;;;11.60;99.90;;;10.59;100.00;101342.25;5009622;28;20069;-92
2022/03/14 09:20:21;;;;;;;12.77;6.20;;;11.60;99.90;;;10.61;100.00;101337.50;5013466;28;20046;-92
2022/03/14 09:22:49;;;;;;;16.88;6.43;;;11.60;99.90;;;10.60;100.00;101327.59;5022691;28;20065;-92
2022/03/14 09:25:17;;;;;;;10.63;6.20;;;11.70;99.90;;;10.61;100.00;101351.09;5007835;28;20500;-92
2022/03/14 09:27:45;;;;;;;15.10;7.40;;;11.70;99.90;;;10.77;100.00;101364.75;5013273;28;20034;-93
2022/03/14 09:30:15;;;;;;;13.23;6.38;;;11.70;99.90;;;10.78;100.00;101362.91;5009059;28;20082;-92
2022/03/14 09:32:51;;;;;;;11.32;6.05;;;11.70;99.90;;;10.89;100.00;101355.28;5008993;28;20026;-95
2022/03/14 09:35:31;;;;;;;15.32;7.47;;;11.80;99.90;;;10.92;100.00;101352.19;5000888;28;20489;-95
2022/03/14 10:59:10;;;;;;;9.85;5.65;;;12.10;99.90;;;11.22;99.60;101458.03;4983848;26;20045;-94
2022/03/14 11:02:03;;;;;;;13.35;5.93;;;12.10;99.90;;;11.37;100.00;101477.31;5021487;28;20069;-93
2022/03/14 11:08:51;;;;;;;11.68;5.70;;;12.30;99.90;;;11.67;98.47;101452.16;4931911;28;20054;-92
2022/03/14 11:11:22;;;;;;;13.32;5.93;;;12.40;99.90;;;11.80;97.55;101468.00;4976633;28;20054;-90
2022/03/14 11:13:51;;;;;;;9.80;5.60;;;12.50;99.90;;;11.76;98.05;101449.44;5030645;28;20100;-91
2022/03/14 11:16:34;;;;;;;16.00;6.32;;;12.50;99.90;;;11.78;97.49;101464.59;5031127;28;20049;-92
2022/03/14 11:19:02;;;;;;;15.23;5.55;;;12.60;99.90;;;11.93;96.21;101468.38;5018685;28;20065;-89
2022/03/14 11:55:35;;;;;;;11.70;6.43;;;12.80;99.00;;;11.51;91.88;101469.31;5032706;28;20063;-94
2022/03/14 11:58:38;;;;;;;14.57;5.82;;;12.80;98.70;;;11.46;92.50;101477.16;4999982;28;20125;-92
2022/03/14 12:01:21;;;;;;;10.70;6.22;;;12.70;99.50;;;11.53;93.62;101489.09;5024303;28;20045;-87
2022/03/14 12:03:50;;;;;;;13.85;5.70;;;12.70;99.90;;;11.47;92.36;101489.75;5002807;28;20148;-90
2022/03/14 12:07:11;;;;;;;12.68;5.35;;;12.60;99.80;;;11.42;93.50;101496.72;5011822;28;20051;-89
2022/03/14 12:09:48;;;;;;;12.77;5.68;;;12.60;99.90;;;11.40;93.73;101490.59;5029568;28;20037;-88
2022/03/14 12:12:29;;;;;;;12.77;6.05;;;12.60;99.90;;;11.40;94.02;101480.53;5029257;28;20068;-83
2022/03/14 12:14:59;;;;;;;14.52;6.00;;;12.50;99.90;;;11.38;94.50;101485.31;5020561;28;20044;-88
2022/03/14 12:17:30;;;;;;;11.93;6.40;;;12.50;99.90;;;11.39;95.25;101488.91;5005910;28;20774;-91
2022/03/14 12:31:14;;;;;;;9.85;5.63;;;12.60;99.90;;;11.69;94.05;101479.22;5007832;28;20507;-92
2022/03/14 12:33:43;;;;;;;12.07;5.47;;;12.70;99.90;;;11.68;93.24;101478.38;5010579;28;20042;-89
2022/03/14 12:36:34;;;;;;;11.82;5.15;;;12.70;99.90;;;11.68;92.16;101481.13;4993846;28;20460;-93
2022/03/14 12:39:22;;;;;;;13.07;6.13;;;12.80;99.90;;;11.68;92.40;101485.72;5006764;28;20077;-94
2022/03/14 12:41:51;;;;;;;12.10;6.40;;;12.80;99.90;;;11.58;90.83;101496.78;4982687;28;20054;-95
2022/03/14 12:44:19;;;;;;;12.30;6.10;;;12.70;97.70;;;11.50;91.41;101497.63;4991766;28;20065;-93
2022/03/14 12:46:59;;;;;;;17.85;6.25;;;12.70;98.80;;;11.35;92.53;101505.59;4983373;28;20042;-95